sensor_id;sensor_type;location;lat;lon;timestamp;pressure;altitude;pressure_sealevel;temperature;humidity
61506;BME280;47366;51.916;4.574;2023-02-22T00:00:19;101677.50;;;6.05;97.02
61506;BME280;47366;51.916;4.574;2023-02-22T00:02:54;101678.44;;;6.04;96.61
61506;BME280;47366;51.916;4.574;2023-02-22T00:05:25;101675.03;;;5.97;96.88
61506;BME280;47366;51.916;4.574;2023-02-22T00:07:51;101676.63;;;6.04;96.67
61506;BME280;47366;51.916;4.574;2023-02-22T00:10:17;101674.75;;;6.08;97.01
61506;BME280;47366;51.916;4.574;2023-02-22T00:12:50;101669.25;;;6.11;96.62
61506;BME280;47366;51.916;4.574;2023-02-22T00:15:18;101680.28;;;6.02;96.39
61506;BME280;47366;51.916;4.574;2023-02-22T00:17:45;101673.31;;;5.94;96.63
61506;BME280;47366;51.916;4.574;2023-02-22T00:20:12;101668.91;;;5.90;96.65
61506;BME280;47366;51.916;4.574;2023-02-22T00:22:42;101664.50;;;5.89;96.67
61506;BME280;47366;51.916;4.574;2023-02-22T00:25:10;101675.28;;;5.88;96.73
61506;BME280;47366;51.916;4.574;2023-02-22T00:27:36;101672.69;;;5.85;96.49
61506;BME280;47366;51.916;4.574;2023-02-22T00:30:03;101677.97;;;5.88;96.96
61506;BME280;47366;51.916;4.574;2023-02-22T00:32:29;101679.75;;;5.89;96.61
61506;BME280;47366;51.916;4.574;2023-02-22T00:34:54;101673.44;;;5.90;96.83
61506;BME280;47366;51.916;4.574;2023-02-22T00:37:20;101676.97;;;5.92;96.65
61506;BME280;47366;51.916;4.574;2023-02-22T00:39:49;101675.16;;;5.92;96.46
61506;BME280;47366;51.916;4.574;2023-02-22T00:42:16;101679.81;;;5.86;96.24
61506;BME280;47366;51.916;4.574;2023-02-22T00:44:42;101682.59;;;5.83;96.24
61506;BME280;47366;51.916;4.574;2023-02-22T00:47:08;101671.97;;;5.78;96.19
61506;BME280;47366;51.916;4.574;2023-02-22T00:49:34;101669.28;;;5.78;96.30
61506;BME280;47366;51.916;4.574;2023-02-22T00:52:00;101666.63;;;5.77;96.33
61506;BME280;47366;51.916;4.574;2023-02-22T00:54:25;101663.13;;;5.74;96.40
61506;BME280;47366;51.916;4.574;2023-02-22T00:56:51;101662.28;;;5.72;96.35
61506;BME280;47366;51.916;4.574;2023-02-22T00:59:16;101657.88;;;5.70;96.80
61506;BME280;47366;51.916;4.574;2023-02-22T01:01:42;101658.69;;;5.72;97.00
61506;BME280;47366;51.916;4.574;2023-02-22T01:04:08;101656.91;;;5.72;96.77
61506;BME280;47366;51.916;4.574;2023-02-22T01:06:34;101655.13;;;5.71;97.06
61506;BME280;47366;51.916;4.574;2023-02-22T01:09:00;101652.56;;;5.67;97.05
61506;BME280;47366;51.916;4.574;2023-02-22T01:11:26;101663.25;;;5.70;97.07
61506;BME280;47366;51.916;4.574;2023-02-22T01:13:52;101658.78;;;5.69;96.93
61506;BME280;47366;51.916;4.574;2023-02-22T01:16:18;101650.00;;;5.62;96.91
61506;BME280;47366;51.916;4.574;2023-02-22T01:18:44;101653.63;;;5.61;97.01
61506;BME280;47366;51.916;4.574;2023-02-22T01:21:09;101652.06;;;5.52;97.26
61506;BME280;47366;51.916;4.574;2023-02-22T01:23:34;101651.22;;;5.50;97.66
61506;BME280;47366;51.916;4.574;2023-02-22T01:26:00;101641.38;;;5.51;97.62
61506;BME280;47366;51.916;4.574;2023-02-22T01:28:26;101648.50;;;5.52;97.76
61506;BME280;47366;51.916;4.574;2023-02-22T01:30:53;101642.34;;;5.48;97.53
61506;BME280;47366;51.916;4.574;2023-02-22T01:33:20;101630.91;;;5.40;97.35
61506;BME280;47366;51.916;4.574;2023-02-22T01:35:45;101638.09;;;5.40;97.46
61506;BME280;47366;51.916;4.574;2023-02-22T01:38:11;101633.69;;;5.37;98.17
61506;BME280;47366;51.916;4.574;2023-02-22T01:40:40;101629.16;;;5.39;97.76
61506;BME280;47366;51.916;4.574;2023-02-22T01:43:20;101639.19;;;5.32;97.86
61506;BME280;47366;51.916;4.574;2023-02-22T01:51:02;101610.84;;;5.22;98.24
61506;BME280;47366;51.916;4.574;2023-02-22T01:53:42;101623.19;;;5.28;98.44
61506;BME280;47366;51.916;4.574;2023-02-22T01:56:09;101614.16;;;5.32;98.33
61506;BME280;47366;51.916;4.574;2023-02-22T01:58:37;101618.66;;;5.31;98.12
61506;BME280;47366;51.916;4.574;2023-02-22T02:01:05;101616.72;;;5.37;98.00
61506;BME280;47366;51.916;4.574;2023-02-22T02:03:33;101608.69;;;5.35;97.96
61506;BME280;47366;51.916;4.574;2023-02-22T02:06:02;101609.88;;;5.25;97.85
61506;BME280;47366;51.916;4.574;2023-02-22T02:08:50;101609.97;;;5.20;98.57
61506;BME280;47366;51.916;4.574;2023-02-22T02:11:21;101598.41;;;5.18;98.51
61506;BME280;47366;51.916;4.574;2023-02-22T02:13:49;101606.50;;;5.17;98.23
61506;BME280;47366;51.916;4.574;2023-02-22T02:16:16;101607.44;;;5.14;98.73
61506;BME280;47366;51.916;4.574;2023-02-22T02:18:41;101601.22;;;5.14;98.84
61506;BME280;47366;51.916;4.574;2023-02-22T02:32:26;101595.56;;;4.90;99.36
61506;BME280;47366;51.916;4.574;2023-02-22T02:35:13;101580.28;;;4.94;99.33
61506;BME280;47366;51.916;4.574;2023-02-22T02:40:34;101575.78;;;4.94;99.38
61506;BME280;47366;51.916;4.574;2023-02-22T02:43:31;101569.44;;;4.97;99.97
61506;BME280;47366;51.916;4.574;2023-02-22T02:46:05;101574.91;;;4.94;99.21
61506;BME280;47366;51.916;4.574;2023-02-22T02:48:34;101563.34;;;4.90;100.00
61506;BME280;47366;51.916;4.574;2023-02-22T02:51:04;101550.91;;;4.86;99.20
61506;BME280;47366;51.916;4.574;2023-02-22T02:53:37;101546.47;;;4.86;99.66
61506;BME280;47366;51.916;4.574;2023-02-22T02:56:04;101555.41;;;4.85;100.00
61506;BME280;47366;51.916;4.574;2023-02-22T02:58:30;101549.28;;;4.80;100.00
61506;BME280;47366;51.916;4.574;2023-02-22T03:00:58;101551.97;;;4.80;100.00
61506;BME280;47366;51.916;4.574;2023-02-22T03:03:45;101550.22;;;4.79;100.00
61506;BME280;47366;51.916;4.574;2023-02-22T03:08:55;101539.31;;;4.85;100.00
61506;BME280;47366;51.916;4.574;2023-02-22T03:11:27;101535.75;;;4.85;100.00
61506;BME280;47366;51.916;4.574;2023-02-22T03:14:22;101536.72;;;4.82;100.00
61506;BME280;47366;51.916;4.574;2023-02-22T03:16:57;101522.53;;;4.77;100.00
61506;BME280;47366;51.916;4.574;2023-02-22T03:19:31;101526.97;;;4.78;100.00
61506;BME280;47366;51.916;4.574;2023-02-22T03:22:10;101521.78;;;4.72;100.00
61506;BME280;47366;51.916;4.574;2023-02-22T03:24:43;101512.91;;;4.68;100.00
61506;BME280;47366;51.916;4.574;2023-02-22T03:27:26;101509.41;;;4.66;100.00
61506;BME280;47366;51.916;4.574;2023-02-22T03:29:57;101506.91;;;4.60;100.00
61506;BME280;47366;51.916;4.574;2023-02-22T03:32:30;101514.88;;;4.62;100.00
61506;BME280;47366;51.916;4.574;2023-02-22T03:35:05;101505.06;;;4.62;100.00
61506;BME280;47366;51.916;4.574;2023-02-22T03:37:34;101497.00;;;4.62;100.00
61506;BME280;47366;51.916;4.574;2023-02-22T03:40:03;101504.84;;;4.70;100.00
61506;BME280;47366;51.916;4.574;2023-02-22T03:42:40;101493.28;;;4.68;100.00
61506;BME280;47366;51.916;4.574;2023-02-22T03:45:08;101488.78;;;4.68;100.00
61506;BME280;47366;51.916;4.574;2023-02-22T03:47:40;101488.00;;;4.65;100.00
61506;BME280;47366;51.916;4.574;2023-02-22T03:50:19;101481.81;;;4.61;100.00
61506;BME280;47366;51.916;4.574;2023-02-22T03:52:46;101472.78;;;4.64;100.00
61506;BME280;47366;51.916;4.574;2023-02-22T03:55:12;101475.16;;;4.76;100.00
61506;BME280;47366;51.916;4.574;2023-02-22T03:57:47;101465.38;;;4.74;100.00
61506;BME280;47366;51.916;4.574;2023-02-22T04:00:18;101461.81;;;4.73;100.00
61506;BME280;47366;51.916;4.574;2023-02-22T04:02:47;101458.97;;;4.79;100.00
61506;BME280;47366;51.916;4.574;2023-02-22T04:05:12;101459.84;;;4.80;100.00
61506;BME280;47366;51.916;4.574;2023-02-22T04:07:38;101452.56;;;4.83;100.00
61506;BME280;47366;51.916;4.574;2023-02-22T04:10:04;101446.56;;;4.75;100.00
61506;BME280;47366;51.916;4.574;2023-02-22T04:12:35;101446.72;;;4.69;100.00
61506;BME280;47366;51.916;4.574;2023-02-22T04:15:01;101446.97;;;4.60;100.00
61506;BME280;47366;51.916;4.574;2023-02-22T04:17:27;101443.47;;;4.58;100.00
61506;BME280;47366;51.916;4.574;2023-02-22T04:19:52;101433.66;;;4.55;100.00
61506;BME280;47366;51.916;4.574;2023-02-22T04:22:17;101439.84;;;4.59;100.00
61506;BME280;47366;51.916;4.574;2023-02-22T04:24:43;101438.03;;;4.59;100.00
61506;BME280;47366;51.916;4.574;2023-02-22T04:27:08;101438.78;;;4.64;100.00
61506;BME280;47366;51.916;4.574;2023-02-22T04:29:34;101431.53;;;4.70;100.00
61506;BME280;47366;51.916;4.574;2023-02-22T04:31:59;101432.31;;;4.72;100.00
61506;BME280;47366;51.916;4.574;2023-02-22T04:34:24;101433.13;;;4.77;100.00
61506;BME280;47366;51.916;4.574;2023-02-22T04:36:50;101426.00;;;4.74;100.00
61506;BME280;47366;51.916;4.574;2023-02-22T04:39:16;101432.19;;;4.76;100.00
61506;BME280;47366;51.916;4.574;2023-02-22T04:41:41;101427.66;;;4.80;100.00
61506;BME280;47366;51.916;4.574;2023-02-22T04:44:07;101429.41;;;4.81;100.00
61506;BME280;47366;51.916;4.574;2023-02-22T04:46:32;101427.56;;;4.83;100.00
61506;BME280;47366;51.916;4.574;2023-02-22T04:48:57;101421.31;;;4.82;100.00
61506;BME280;47366;51.916;4.574;2023-02-22T04:51:23;101421.22;;;4.85;100.00
61506;BME280;47366;51.916;4.574;2023-02-22T04:53:48;101417.56;;;4.88;100.00
61506;BME280;47366;51.916;4.574;2023-02-22T04:56:16;101423.81;;;4.88;100.00
61506;BME280;47366;51.916;4.574;2023-02-22T04:58:42;101421.94;;;4.92;100.00
61506;BME280;47366;51.916;4.574;2023-02-22T05:01:07;101421.06;;;4.92;100.00
61506;BME280;47366;51.916;4.574;2023-02-22T05:03:32;101423.81;;;4.88;100.00
61506;BME280;47366;51.916;4.574;2023-02-22T05:05:58;101425.81;;;4.82;100.00
61506;BME280;47366;51.916;4.574;2023-02-22T05:08:23;101426.91;;;4.75;100.00
61506;BME280;47366;51.916;4.574;2023-02-22T05:10:48;101420.63;;;4.74;100.00
61506;BME280;47366;51.916;4.574;2023-02-22T05:13:14;101423.31;;;4.74;100.00
61506;BME280;47366;51.916;4.574;2023-02-22T05:15:39;101410.69;;;4.78;100.00
61506;BME280;47366;51.916;4.574;2023-02-22T05:18:04;101402.66;;;4.78;100.00
61506;BME280;47366;51.916;4.574;2023-02-22T05:20:32;101403.50;;;4.80;100.00
61506;BME280;47366;51.916;4.574;2023-02-22T05:22:59;101414.25;;;4.78;100.00
61506;BME280;47366;51.916;4.574;2023-02-22T05:25:25;101406.34;;;4.74;100.00
61506;BME280;47366;51.916;4.574;2023-02-22T05:27:53;101403.75;;;4.71;100.00
61506;BME280;47366;51.916;4.574;2023-02-22T05:30:20;101406.59;;;4.64;100.00
61506;BME280;47366;51.916;4.574;2023-02-22T05:32:48;101406.66;;;4.63;100.00
61506;BME280;47366;51.916;4.574;2023-02-22T05:35:14;101408.47;;;4.62;100.00
61506;BME280;47366;51.916;4.574;2023-02-22T05:37:39;101404.75;;;4.66;100.00
61506;BME280;47366;51.916;4.574;2023-02-22T05:40:05;101399.25;;;4.71;100.00
61506;BME280;47366;51.916;4.574;2023-02-22T05:42:32;101392.06;;;4.72;100.00
61506;BME280;47366;51.916;4.574;2023-02-22T05:44:57;101373.25;;;4.73;100.00
61506;BME280;47366;51.916;4.574;2023-02-22T05:47:24;101374.97;;;4.76;100.00
61506;BME280;47366;51.916;4.574;2023-02-22T05:49:49;101366.94;;;4.76;100.00
61506;BME280;47366;51.916;4.574;2023-02-22T05:52:15;101364.97;;;4.81;100.00
61506;BME280;47366;51.916;4.574;2023-02-22T05:54:40;101363.13;;;4.83;100.00
61506;BME280;47366;51.916;4.574;2023-02-22T05:57:05;101351.50;;;4.84;100.00
61506;BME280;47366;51.916;4.574;2023-02-22T05:59:31;101357.63;;;4.87;100.00
61506;BME280;47366;51.916;4.574;2023-02-22T06:01:57;101352.22;;;4.89;100.00
61506;BME280;47366;51.916;4.574;2023-02-22T06:04:22;101347.88;;;4.85;100.00
61506;BME280;47366;51.916;4.574;2023-02-22T06:06:47;101347.84;;;4.86;100.00
61506;BME280;47366;51.916;4.574;2023-02-22T06:09:13;101335.38;;;4.84;100.00
61506;BME280;47366;51.916;4.574;2023-02-22T06:11:38;101347.13;;;4.80;100.00
61506;BME280;47366;51.916;4.574;2023-02-22T06:14:03;101337.31;;;4.79;100.00
61506;BME280;47366;51.916;4.574;2023-02-22T06:16:29;101335.44;;;4.82;100.00
61506;BME280;47366;51.916;4.574;2023-02-22T06:18:56;101334.41;;;4.86;100.00
61506;BME280;47366;51.916;4.574;2023-02-22T06:21:22;101332.72;;;4.84;100.00
61506;BME280;47366;51.916;4.574;2023-02-22T06:23:47;101327.38;;;4.82;100.00
61506;BME280;47366;51.916;4.574;2023-02-22T06:26:15;101330.03;;;4.84;100.00
61506;BME280;47366;51.916;4.574;2023-02-22T06:28:41;101338.06;;;4.84;100.00
61506;BME280;47366;51.916;4.574;2023-02-22T06:31:06;101334.56;;;4.82;100.00
61506;BME280;47366;51.916;4.574;2023-02-22T06:33:32;101345.09;;;4.88;100.00
61506;BME280;47366;51.916;4.574;2023-02-22T06:35:57;101350.41;;;4.89;100.00
61506;BME280;47366;51.916;4.574;2023-02-22T06:38:24;101351.31;;;4.88;100.00
61506;BME280;47366;51.916;4.574;2023-02-22T06:40:50;101357.78;;;4.83;100.00
61506;BME280;47366;51.916;4.574;2023-02-22T06:43:16;101345.28;;;4.82;100.00
61506;BME280;47366;51.916;4.574;2023-02-22T06:45:41;101342.59;;;4.82;100.00
61506;BME280;47366;51.916;4.574;2023-02-22T06:48:07;101333.66;;;4.81;100.00
61506;BME280;47366;51.916;4.574;2023-02-22T06:50:33;101335.38;;;4.84;100.00
61506;BME280;47366;51.916;4.574;2023-02-22T06:52:58;101346.13;;;4.84;100.00
61506;BME280;47366;51.916;4.574;2023-02-22T06:55:29;101346.94;;;4.86;100.00
61506;BME280;47366;51.916;4.574;2023-02-22T06:57:54;101350.47;;;4.88;100.00
61506;BME280;47366;51.916;4.574;2023-02-22T07:00:22;101343.97;;;4.95;100.00
61506;BME280;47366;51.916;4.574;2023-02-22T07:02:49;101348.47;;;4.95;100.00
61506;BME280;47366;51.916;4.574;2023-02-22T07:05:16;101348.50;;;4.93;100.00
61506;BME280;47366;51.916;4.574;2023-02-22T07:07:42;101350.28;;;4.94;100.00
61506;BME280;47366;51.916;4.574;2023-02-22T07:10:25;101360.09;;;4.95;100.00
61506;BME280;47366;51.916;4.574;2023-02-22T07:12:51;101363.59;;;4.97;100.00
61506;BME280;47366;51.916;4.574;2023-02-22T07:15:17;101375.19;;;4.99;100.00
61506;BME280;47366;51.916;4.574;2023-02-22T07:17:45;101373.44;;;4.98;100.00
61506;BME280;47366;51.916;4.574;2023-02-22T07:20:10;101377.03;;;4.97;100.00
61506;BME280;47366;51.916;4.574;2023-02-22T07:22:37;101361.78;;;4.98;100.00
61506;BME280;47366;51.916;4.574;2023-02-22T07:25:04;101368.94;;;4.99;100.00
61506;BME280;47366;51.916;4.574;2023-02-22T07:27:30;101378.72;;;5.01;100.00
61506;BME280;47366;51.916;4.574;2023-02-22T07:29:55;101377.91;;;4.98;100.00
61506;BME280;47366;51.916;4.574;2023-02-22T07:32:21;101367.28;;;4.93;100.00
61506;BME280;47366;51.916;4.574;2023-02-22T07:34:46;101377.97;;;4.96;100.00
61506;BME280;47366;51.916;4.574;2023-02-22T07:37:11;101377.88;;;4.99;100.00
61506;BME280;47366;51.916;4.574;2023-02-22T07:39:37;101377.97;;;4.96;100.00
61506;BME280;47366;51.916;4.574;2023-02-22T07:42:03;101374.44;;;4.94;100.00
61506;BME280;47366;51.916;4.574;2023-02-22T07:44:28;101378.94;;;4.94;100.00
61506;BME280;47366;51.916;4.574;2023-02-22T07:46:54;101372.81;;;4.88;100.00
61506;BME280;47366;51.916;4.574;2023-02-22T07:49:19;101371.91;;;4.89;100.00
61506;BME280;47366;51.916;4.574;2023-02-22T07:51:44;101378.13;;;4.90;100.00
61506;BME280;47366;51.916;4.574;2023-02-22T07:54:10;101372.63;;;4.95;100.00
61506;BME280;47366;51.916;4.574;2023-02-22T07:56:35;101373.50;;;4.95;100.00
61506;BME280;47366;51.916;4.574;2023-02-22T07:59:00;101375.34;;;4.93;100.00
61506;BME280;47366;51.916;4.574;2023-02-22T08:01:26;101365.31;;;5.00;100.00
61506;BME280;47366;51.916;4.574;2023-02-22T08:03:51;101356.34;;;5.01;100.00
61506;BME280;47366;51.916;4.574;2023-02-22T08:06:18;101364.28;;;5.05;100.00
61506;BME280;47366;51.916;4.574;2023-02-22T08:08:45;101357.97;;;5.06;100.00
61506;BME280;47366;51.916;4.574;2023-02-22T08:11:10;101348.06;;;5.08;100.00
61506;BME280;47366;51.916;4.574;2023-02-22T08:13:37;101339.03;;;5.11;100.00
61506;BME280;47366;51.916;4.574;2023-02-22T08:16:02;101331.75;;;5.15;100.00
61506;BME280;47366;51.916;4.574;2023-02-22T08:18:28;101328.91;;;5.19;100.00
61506;BME280;47366;51.916;4.574;2023-02-22T08:20:53;101319.84;;;5.23;100.00
61506;BME280;47366;51.916;4.574;2023-02-22T08:23:21;101324.31;;;5.24;100.00
61506;BME280;47366;51.916;4.574;2023-02-22T08:25:46;101325.03;;;5.29;100.00
61506;BME280;47366;51.916;4.574;2023-02-22T08:28:15;101327.66;;;5.31;100.00
61506;BME280;47366;51.916;4.574;2023-02-22T08:30:41;101332.00;;;5.35;100.00
61506;BME280;47366;51.916;4.574;2023-02-22T08:33:09;101335.41;;;5.40;100.00
61506;BME280;47366;51.916;4.574;2023-02-22T08:35:35;101330.75;;;5.45;100.00
61506;BME280;47366;51.916;4.574;2023-02-22T08:38:03;101320.03;;;5.45;100.00
61506;BME280;47366;51.916;4.574;2023-02-22T08:40:32;101320.13;;;5.42;100.00
61506;BME280;47366;51.916;4.574;2023-02-22T08:42:57;101322.81;;;5.42;100.00
61506;BME280;47366;51.916;4.574;2023-02-22T08:45:23;101317.34;;;5.45;100.00
61506;BME280;47366;51.916;4.574;2023-02-22T08:47:48;101311.91;;;5.47;100.00
61506;BME280;47366;51.916;4.574;2023-02-22T08:50:20;101322.63;;;5.48;100.00
61506;BME280;47366;51.916;4.574;2023-02-22T08:52:46;101318.81;;;5.56;100.00
61506;BME280;47366;51.916;4.574;2023-02-22T08:55:12;101302.88;;;5.49;100.00
61506;BME280;47366;51.916;4.574;2023-02-22T08:57:37;101309.94;;;5.52;100.00
61506;BME280;47366;51.916;4.574;2023-02-22T09:00:03;101308.09;;;5.54;100.00
61506;BME280;47366;51.916;4.574;2023-02-22T09:02:29;101304.63;;;5.50;100.00
61506;BME280;47366;51.916;4.574;2023-02-22T09:04:54;101303.72;;;5.51;100.00
61506;BME280;47366;51.916;4.574;2023-02-22T09:07:20;101303.66;;;5.53;100.00
61506;BME280;47366;51.916;4.574;2023-02-22T09:09:45;101298.22;;;5.54;100.00
61506;BME280;47366;51.916;4.574;2023-02-22T09:12:11;101301.63;;;5.60;100.00
61506;BME280;47366;51.916;4.574;2023-02-22T09:14:36;101298.22;;;5.54;100.00
61506;BME280;47366;51.916;4.574;2023-02-22T09:17:02;101294.63;;;5.56;100.00
61506;BME280;47366;51.916;4.574;2023-02-22T09:19:27;101294.50;;;5.59;100.00
61506;BME280;47366;51.916;4.574;2023-02-22T09:21:57;101287.16;;;5.64;100.00
61506;BME280;47366;51.916;4.574;2023-02-22T09:24:24;101284.47;;;5.64;100.00
61506;BME280;47366;51.916;4.574;2023-02-22T09:26:50;101290.88;;;5.60;100.00
61506;BME280;47366;51.916;4.574;2023-02-22T09:29:22;101299.59;;;5.68;100.00
61506;BME280;47366;51.916;4.574;2023-02-22T09:31:50;101313.72;;;5.73;100.00
61506;BME280;47366;51.916;4.574;2023-02-22T09:34:15;101306.44;;;5.77;100.00
61506;BME280;47366;51.916;4.574;2023-02-22T09:36:42;101314.44;;;5.78;100.00
61506;BME280;47366;51.916;4.574;2023-02-22T09:39:08;101326.94;;;5.79;100.00
61506;BME280;47366;51.916;4.574;2023-02-22T09:42:00;101324.25;;;5.79;100.00
61506;BME280;47366;51.916;4.574;2023-02-22T09:44:47;101325.06;;;5.83;100.00
61506;BME280;47366;51.916;4.574;2023-02-22T09:47:19;101334.84;;;5.84;100.00
61506;BME280;47366;51.916;4.574;2023-02-22T09:52:25;101327.38;;;5.93;100.00
61506;BME280;47366;51.916;4.574;2023-02-22T09:57:36;101299.25;;;6.04;100.00
61506;BME280;47366;51.916;4.574;2023-02-22T10:00:20;101293.66;;;6.10;100.00
61506;BME280;47366;51.916;4.574;2023-02-22T10:03:21;101293.59;;;6.11;99.58
61506;BME280;47366;51.916;4.574;2023-02-22T10:05:43;101309.69;;;6.13;99.24
61506;BME280;47366;51.916;4.574;2023-02-22T10:08:13;101314.13;;;6.14;98.58
61506;BME280;47366;51.916;4.574;2023-02-22T10:10:45;101318.41;;;6.20;98.38
61506;BME280;47366;51.916;4.574;2023-02-22T10:19:24;101301.06;;;6.53;97.95
61506;BME280;47366;51.916;4.574;2023-02-22T10:21:58;101308.06;;;6.57;97.30
61506;BME280;47366;51.916;4.574;2023-02-22T10:27:30;101306.78;;;6.68;96.63
61506;BME280;47366;51.916;4.574;2023-02-22T10:30:26;101311.00;;;6.75;96.89
61506;BME280;47366;51.916;4.574;2023-02-22T10:33:12;101306.22;;;6.81;96.29
61506;BME280;47366;51.916;4.574;2023-02-22T10:35:40;101309.75;;;6.84;95.70
61506;BME280;47366;51.916;4.574;2023-02-22T10:40:47;101312.91;;;6.95;95.17
61506;BME280;47366;51.916;4.574;2023-02-22T10:43:13;101306.91;;;7.10;95.62
61506;BME280;47366;51.916;4.574;2023-02-22T10:45:39;101294.22;;;7.14;93.71
61506;BME280;47366;51.916;4.574;2023-02-22T10:48:06;101296.59;;;7.21;94.04
61506;BME280;47366;51.916;4.574;2023-02-22T10:50:34;101290.19;;;7.24;91.99
61506;BME280;47366;51.916;4.574;2023-02-22T10:53:01;101282.69;;;7.32;92.13
61506;BME280;47366;51.916;4.574;2023-02-22T10:55:26;101281.59;;;7.36;92.39
61506;BME280;47366;51.916;4.574;2023-02-22T10:58:01;101276.13;;;7.39;91.82
61506;BME280;47366;51.916;4.574;2023-02-22T11:00:32;101274.47;;;7.35;91.01
61506;BME280;47366;51.916;4.574;2023-02-22T11:03:05;101275.44;;;7.34;91.20
61506;BME280;47366;51.916;4.574;2023-02-22T11:05:39;101266.56;;;7.31;90.48
61506;BME280;47366;51.916;4.574;2023-02-22T11:10:51;101262.56;;;7.41;91.06
61506;BME280;47366;51.916;4.574;2023-02-22T11:13:32;101264.31;;;7.42;91.45
61506;BME280;47366;51.916;4.574;2023-02-22T11:16:00;101260.66;;;7.43;91.52
61506;BME280;47366;51.916;4.574;2023-02-22T11:18:32;101262.44;;;7.44;90.69
61506;BME280;47366;51.916;4.574;2023-02-22T11:21:02;101265.13;;;7.44;90.47
61506;BME280;47366;51.916;4.574;2023-02-22T11:23:28;101261.16;;;7.53;91.18
61506;BME280;47366;51.916;4.574;2023-02-22T11:26:09;101251.13;;;7.56;90.47
61506;BME280;47366;51.916;4.574;2023-02-22T11:28:41;101247.50;;;7.57;91.41
61506;BME280;47366;51.916;4.574;2023-02-22T11:31:19;101246.22;;;7.66;91.65
61506;BME280;47366;51.916;4.574;2023-02-22T11:39:03;101235.38;;;7.68;89.77
61506;BME280;47366;51.916;4.574;2023-02-22T11:41:31;101231.53;;;7.73;91.00
61506;BME280;47366;51.916;4.574;2023-02-22T11:44:13;101236.72;;;7.78;90.01
61506;BME280;47366;51.916;4.574;2023-02-22T11:46:40;101241.97;;;7.81;90.83
61506;BME280;47366;51.916;4.574;2023-02-22T11:49:11;101234.66;;;7.84;90.72
61506;BME280;47366;51.916;4.574;2023-02-22T12:00:14;101226.31;;;8.09;89.95
61506;BME280;47366;51.916;4.574;2023-02-22T12:14:14;101217.34;;;8.29;87.80
61506;BME280;47366;51.916;4.574;2023-02-22T12:19:36;101207.41;;;8.30;87.41
61506;BME280;47366;51.916;4.574;2023-02-22T12:22:17;101206.31;;;8.34;87.29
61506;BME280;47366;51.916;4.574;2023-02-22T12:24:49;101209.91;;;8.35;87.73
61506;BME280;47366;51.916;4.574;2023-02-22T12:27:19;101201.72;;;8.36;88.71
61506;BME280;47366;51.916;4.574;2023-02-22T12:29:50;101214.34;;;8.36;86.72
61506;BME280;47366;51.916;4.574;2023-02-22T12:32:40;101216.09;;;8.37;87.47
61506;BME280;47366;51.916;4.574;2023-02-22T12:38:00;101208.78;;;8.39;88.33
61506;BME280;47366;51.916;4.574;2023-02-22T12:40:40;101208.59;;;8.43;88.56
61506;BME280;47366;51.916;4.574;2023-02-22T12:43:23;101211.31;;;8.43;88.32
61506;BME280;47366;51.916;4.574;2023-02-22T12:46:02;101219.06;;;8.51;88.66
61506;BME280;47366;51.916;4.574;2023-02-22T12:48:42;101208.19;;;8.53;89.09
61506;BME280;47366;51.916;4.574;2023-02-22T12:56:56;101213.00;;;8.65;88.08
61506;BME280;47366;51.916;4.574;2023-02-22T12:59:34;101221.84;;;8.68;88.91
61506;BME280;47366;51.916;4.574;2023-02-22T13:04:53;101226.81;;;8.78;88.73
61506;BME280;47366;51.916;4.574;2023-02-22T13:10:56;101214.44;;;8.72;88.19
61506;BME280;47366;51.916;4.574;2023-02-22T13:18:54;101216.88;;;8.78;88.81
61506;BME280;47366;51.916;4.574;2023-02-22T13:21:35;101218.53;;;8.81;89.67
61506;BME280;47366;51.916;4.574;2023-02-22T13:24:28;101218.47;;;8.82;88.55
61506;BME280;47366;51.916;4.574;2023-02-22T13:27:09;101222.91;;;8.83;88.92
61506;BME280;47366;51.916;4.574;2023-02-22T13:29:41;101210.28;;;8.84;88.35
61506;BME280;47366;51.916;4.574;2023-02-22T13:32:36;101219.28;;;8.84;88.40
61506;BME280;47366;51.916;4.574;2023-02-22T13:35:33;101218.09;;;8.90;89.37
61506;BME280;47366;51.916;4.574;2023-02-22T13:38:25;101218.81;;;8.93;89.58
61506;BME280;47366;51.916;4.574;2023-02-22T13:52:02;101198.75;;;8.99;89.36
61506;BME280;47366;51.916;4.574;2023-02-22T13:54:39;101205.06;;;8.98;89.15
61506;BME280;47366;51.916;4.574;2023-02-22T13:57:21;101203.91;;;9.04;89.63
61506;BME280;47366;51.916;4.574;2023-02-22T13:59:47;101212.56;;;9.10;89.21
61506;BME280;47366;51.916;4.574;2023-02-22T14:02:33;101212.50;;;9.12;88.72
61506;BME280;47366;51.916;4.574;2023-02-22T14:10:54;101216.19;;;9.11;88.82
61506;BME280;47366;51.916;4.574;2023-02-22T14:13:27;101218.13;;;9.07;88.79
61506;BME280;47366;51.916;4.574;2023-02-22T14:18:23;101226.09;;;9.10;89.99
61506;BME280;47366;51.916;4.574;2023-02-22T14:21:09;101220.63;;;9.12;89.80
61506;BME280;47366;51.916;4.574;2023-02-22T14:23:40;101225.78;;;9.17;90.16
61506;BME280;47366;51.916;4.574;2023-02-22T14:26:32;101232.16;;;9.16;89.89
61506;BME280;47366;51.916;4.574;2023-02-22T14:34:42;101224.56;;;9.05;90.08
61506;BME280;47366;51.916;4.574;2023-02-22T14:37:15;101221.38;;;8.97;89.44
61506;BME280;47366;51.916;4.574;2023-02-22T14:40:22;101229.50;;;8.97;90.36
61506;BME280;47366;51.916;4.574;2023-02-22T14:43:12;101231.16;;;8.99;90.29
61506;BME280;47366;51.916;4.574;2023-02-22T14:45:44;101236.69;;;8.96;90.58
61506;BME280;47366;51.916;4.574;2023-02-22T14:48:33;101248.31;;;8.98;90.54
61506;BME280;47366;51.916;4.574;2023-02-22T14:51:15;101256.56;;;8.95;90.59
61506;BME280;47366;51.916;4.574;2023-02-22T14:53:46;101254.84;;;8.94;91.11
61506;BME280;47366;51.916;4.574;2023-02-22T14:56:26;101257.66;;;8.91;90.88
61506;BME280;47366;51.916;4.574;2023-02-22T15:03:49;101255.91;;;8.90;91.68
61506;BME280;47366;51.916;4.574;2023-02-22T15:06:18;101255.97;;;8.88;91.72
61506;BME280;47366;51.916;4.574;2023-02-22T15:08:45;101260.44;;;8.89;91.75